Time;durP1;ratioP1;P1;durP2;ratioP2;P2;SDS_P1;SDS_P2;PMS_P1;PMS_P2;Temp;Humidity;BMP_temperature;BMP_pressure;BME280_temperature;BME280_humidity;BME280_pressure;Samples;Min_cycle;Max_cycle;Signal;HPM_P1;HPM_P2
2023/01/16 00:00:37;;;;;;;;;;;;;;;2.38;72.46;96878.59;4994629;28;19926;-62
2023/01/16 00:03:05;;;;;;;;;;;;;;;2.31;72.03;96875.47;4994132;28;20398;-65
2023/01/16 00:05:33;;;;;;;;;;;;;;;2.41;71.89;96870.00;4994752;28;20072;-63
2023/01/16 00:08:03;;;;;;;;;;;;;;;2.42;72.23;96865.44;4993819;28;19930;-62
2023/01/16 00:10:31;;;;;;;;;;;;;;;2.44;71.85;96861.38;4995004;28;19972;-62
2023/01/16 00:12:59;;;;;;;;;;;;;;;2.48;72.40;96856.25;4994030;28;19926;-63
2023/01/16 00:15:27;;;;;;;;;;;;;;;2.52;71.57;96857.31;4992633;28;19933;-62
2023/01/16 00:17:55;;;;;;;;;;;;;;;2.49;71.96;96853.28;4992989;28;20334;-62
2023/01/16 00:20:24;;;;;;;;;;;;;;;2.51;71.14;96851.16;4994030;28;20302;-63
2023/01/16 00:22:52;;;;;;;;;;;;;;;2.43;72.43;96845.59;4994256;28;19930;-64
2023/01/16 00:25:22;;;;;;;;;;;;;;;2.46;71.87;96853.09;4992934;28;20336;-63
2023/01/16 00:27:50;;;;;;;;;;;;;;;2.39;71.33;96845.34;4993343;28;19941;-62
2023/01/16 00:30:21;;;;;;;;;;;;;;;2.41;71.87;96850.44;4993103;28;20307;-62
2023/01/16 00:32:48;;;;;;;;;;;;;;;2.42;71.18;96847.47;4993923;28;20429;-63
2023/01/16 00:35:17;;;;;;;;;;;;;;;2.51;71.84;96848.47;4992615;28;19925;-62
2023/01/16 00:37:45;;;;;;;;;;;;;;;2.54;71.37;96841.72;4992093;28;19926;-65
2023/01/16 00:40:13;;;;;;;;;;;;;;;2.52;71.71;96835.84;4993498;28;20453;-62
2023/01/16 00:42:43;;;;;;;;;;;;;;;2.59;70.62;96828.25;4991894;28;19929;-64
2023/01/16 00:45:10;;;;;;;;;;;;;;;2.59;70.87;96821.00;4993419;28;19930;-62
2023/01/16 00:47:38;;;;;;;;;;;;;;;2.53;71.41;96821.34;4995829;28;20453;-62
2023/01/16 00:50:07;;;;;;;;;;;;;;;2.44;71.50;96815.81;4993232;28;19936;-62
2023/01/16 00:52:36;;;;;;;;;;;;;;;2.43;71.36;96805.38;4985202;28;19933;-62
2023/01/16 00:55:04;;;;;;;;;;;;;;;2.36;70.56;96803.06;4993161;28;19965;-62
2023/01/16 00:57:33;;;;;;;;;;;;;;;2.29;70.98;96807.94;4988890;28;19973;-63
2023/01/16 01:00:03;;;;;;;;;;;;;;;2.27;71.34;96804.75;4990994;28;19926;-63
2023/01/16 01:02:31;;;;;;;;;;;;;;;2.33;71.60;96796.38;4987284;28;19929;-62
2023/01/16 01:05:00;;;;;;;;;;;;;;;2.38;70.94;96794.72;4992800;28;19930;-62
2023/01/16 01:07:28;;;;;;;;;;;;;;;2.40;71.53;96793.38;4991260;28;19968;-62
2023/01/16 01:09:56;;;;;;;;;;;;;;;2.29;70.93;96792.69;4994057;28;20399;-63
2023/01/16 01:12:24;;;;;;;;;;;;;;;2.44;70.20;96791.69;4993140;28;19985;-62
2023/01/16 01:15:18;;;;;;;;;;;;;;;2.25;70.87;96782.81;4988055;28;19933;-62
2023/01/16 01:17:46;;;;;;;;;;;;;;;2.18;72.27;96788.50;5000957;28;20020;-62
2023/01/16 01:20:16;;;;;;;;;;;;;;;2.23;71.79;96790.31;4989031;28;19926;-63
2023/01/16 01:25:38;;;;;;;;;;;;;;;2.33;70.81;96769.56;4991404;28;20473;-63
2023/01/16 01:28:06;;;;;;;;;;;;;;;2.22;71.10;96769.97;4991070;28;19929;-62
2023/01/16 01:30:35;;;;;;;;;;;;;;;2.21;71.28;96763.03;5007556;28;19936;-63
2023/01/16 01:33:04;;;;;;;;;;;;;;;2.14;71.64;96755.34;4991777;28;20008;-63
2023/01/16 01:38:23;;;;;;;;;;;;;;;2.15;72.36;96754.25;4993503;28;19956;-62
2023/01/16 01:40:51;;;;;;;;;;;;;;;2.15;72.18;96750.78;4990574;28;19925;-64
2023/01/16 01:43:19;;;;;;;;;;;;;;;2.17;71.90;96748.59;4992656;28;19976;-62
2023/01/16 01:45:49;;;;;;;;;;;;;;;2.12;71.81;96740.63;4993021;28;19933;-63
2023/01/16 01:48:20;;;;;;;;;;;;;;;2.10;71.90;96733.66;4991948;28;19930;-63
2023/01/16 01:50:48;;;;;;;;;;;;;;;2.02;72.71;96736.16;4990866;28;19933;-62
2023/01/16 01:56:09;;;;;;;;;;;;;;;2.07;71.66;96728.06;5006758;28;19926;-65
2023/01/16 01:58:38;;;;;;;;;;;;;;;2.14;71.93;96717.81;4994659;28;19930;-63
2023/01/16 02:01:13;;;;;;;;;;;;;;;2.12;71.11;96709.25;5012435;28;19964;-63
2023/01/16 02:03:49;;;;;;;;;;;;;;;2.12;70.62;96705.78;5018646;28;20429;-62
2023/01/16 02:06:18;;;;;;;;;;;;;;;2.02;71.30;96710.16;5003334;28;20318;-64
2023/01/16 02:08:47;;;;;;;;;;;;;;;1.98;71.70;96703.81;4994175;28;19925;-62
2023/01/16 02:11:25;;;;;;;;;;;;;;;2.07;71.89;96712.78;5011302;28;19926;-62
2023/01/16 02:13:54;;;;;;;;;;;;;;;1.99;72.02;96705.41;5011118;28;19929;-63
2023/01/16 02:22:11;;;;;;;;;;;;;;;2.04;72.17;96675.06;5011291;28;20024;-62
2023/01/16 02:24:44;;;;;;;;;;;;;;;1.98;72.25;96678.91;5003739;28;19933;-62
2023/01/16 02:27:26;;;;;;;;;;;;;;;1.97;72.38;96670.06;5002849;28;19925;-62
2023/01/16 02:30:00;;;;;;;;;;;;;;;2.12;71.38;96657.56;5009342;28;19972;-62
2023/01/16 02:32:35;;;;;;;;;;;;;;;2.15;70.95;96651.63;5011485;28;19933;-62
2023/01/16 02:35:07;;;;;;;;;;;;;;;2.22;71.95;96644.03;5000593;28;19937;-62
2023/01/16 02:37:37;;;;;;;;;;;;;;;2.19;71.52;96639.28;5011979;28;19948;-63
2023/01/16 02:40:08;;;;;;;;;;;;;;;2.20;71.63;96630.13;5010535;28;19961;-62
2023/01/16 02:42:38;;;;;;;;;;;;;;;2.25;71.63;96619.34;5001770;28;19930;-62
2023/01/16 02:45:09;;;;;;;;;;;;;;;2.25;70.78;96616.66;5008974;28;19933;-62
2023/01/16 02:47:40;;;;;;;;;;;;;;;2.32;70.99;96609.84;5011381;28;19936;-62
2023/01/16 02:50:09;;;;;;;;;;;;;;;2.41;71.58;96611.91;5011355;28;19925;-63
2023/01/16 02:52:38;;;;;;;;;;;;;;;2.38;70.64;96615.94;4998320;28;19934;-62
2023/01/16 02:55:08;;;;;;;;;;;;;;;2.53;70.24;96604.19;5011379;28;19976;-62
2023/01/16 02:57:37;;;;;;;;;;;;;;;2.56;70.37;96598.28;5000154;28;19936;-62
2023/01/16 03:00:07;;;;;;;;;;;;;;;2.47;70.22;96587.41;5010738;28;19936;-62
2023/01/16 03:02:35;;;;;;;;;;;;;;;2.52;69.91;96583.84;4989570;28;19926;-63
2023/01/16 03:05:06;;;;;;;;;;;;;;;2.49;70.44;96573.69;5006433;28;19929;-62
2023/01/16 03:07:45;;;;;;;;;;;;;;;2.52;69.74;96573.13;5009796;28;20367;-63
2023/01/16 03:10:19;;;;;;;;;;;;;;;2.53;69.32;96570.13;5011196;28;19960;-63
2023/01/16 03:12:52;;;;;;;;;;;;;;;2.59;69.91;96560.94;5010871;28;19934;-62
2023/01/16 03:15:22;;;;;;;;;;;;;;;2.57;69.76;96565.00;4997716;28;19933;-63
2023/01/16 03:17:53;;;;;;;;;;;;;;;2.54;69.65;96555.66;5015532;28;19930;-62
2023/01/16 03:20:26;;;;;;;;;;;;;;;2.53;70.09;96545.22;5012355;28;19926;-62
2023/01/16 03:22:55;;;;;;;;;;;;;;;2.57;70.16;96543.56;5009723;28;20025;-63
2023/01/16 03:25:25;;;;;;;;;;;;;;;2.57;69.36;96533.63;5010220;28;19933;-62
2023/01/16 03:27:55;;;;;;;;;;;;;;;2.58;69.43;96534.41;5003785;28;19926;-63
2023/01/16 03:30:25;;;;;;;;;;;;;;;2.60;68.90;96533.03;5009746;28;19932;-62
2023/01/16 03:32:54;;;;;;;;;;;;;;;2.50;69.27;96527.81;5007910;28;19926;-62
2023/01/16 03:35:22;;;;;;;;;;;;;;;2.56;68.65;96517.84;5010633;28;19983;-68
2023/01/16 03:37:52;;;;;;;;;;;;;;;2.56;68.83;96499.88;5011044;28;19929;-66
2023/01/16 03:40:22;;;;;;;;;;;;;;;2.69;67.93;96492.13;5012276;28;19933;-63
2023/01/16 03:42:52;;;;;;;;;;;;;;;2.61;68.47;96493.63;5014752;28;19936;-65
2023/01/16 03:45:20;;;;;;;;;;;;;;;2.56;69.20;96480.31;4996493;28;20390;-62
2023/01/16 03:47:49;;;;;;;;;;;;;;;2.52;68.69;96466.69;5014257;28;19929;-64
2023/01/16 03:50:18;;;;;;;;;;;;;;;2.49;68.69;96455.75;5014025;28;19925;-65
2023/01/16 03:53:13;;;;;;;;;;;;;;;2.41;68.94;96438.47;5013819;28;20078;-62
2023/01/16 03:55:43;;;;;;;;;;;;;;;2.31;70.23;96441.31;5014717;28;19929;-62
2023/01/16 03:58:13;;;;;;;;;;;;;;;2.28;69.00;96437.31;5012374;28;19925;-63
2023/01/16 04:00:48;;;;;;;;;;;;;;;2.12;69.50;96440.56;5014468;28;19932;-63
2023/01/16 04:03:18;;;;;;;;;;;;;;;2.17;70.35;96432.44;4995658;28;20406;-62
2023/01/16 04:05:47;;;;;;;;;;;;;;;2.25;69.25;96421.06;5014639;28;20413;-65
2023/01/16 04:08:17;;;;;;;;;;;;;;;2.15;69.84;96424.69;4996689;28;19929;-62
2023/01/16 04:10:46;;;;;;;;;;;;;;;1.95;69.64;96433.84;5014201;28;19948;-63
2023/01/16 04:13:39;;;;;;;;;;;;;;;1.78;70.05;96426.34;5013447;28;19941;-62
2023/01/16 04:16:08;;;;;;;;;;;;;;;1.61;71.05;96427.97;5012956;28;19926;-63
2023/01/16 04:18:38;;;;;;;;;;;;;;;1.49;71.18;96423.84;4995153;28;21436;-63
2023/01/16 04:21:07;;;;;;;;;;;;;;;1.31;72.06;96417.38;5012836;28;19936;-62
2023/01/16 04:23:45;;;;;;;;;;;;;;;1.38;71.80;96403.63;5008224;28;20310;-63
2023/01/16 04:26:13;;;;;;;;;;;;;;;1.31;72.15;96393.28;4997307;28;20016;-69
2023/01/16 04:28:41;;;;;;;;;;;;;;;1.28;72.80;96391.22;5013876;28;19948;-62
2023/01/16 04:31:09;;;;;;;;;;;;;;;1.27;72.39;96383.44;5014073;28;19948;-63
2023/01/16 04:33:37;;;;;;;;;;;;;;;1.03;73.99;96383.50;5009998;28;19925;-62
2023/01/16 04:36:05;;;;;;;;;;;;;;;0.95;73.76;96376.91;5001847;28;19936;-62
2023/01/16 04:38:33;;;;;;;;;;;;;;;0.93;74.47;96367.59;5013687;28;19949;-63
2023/01/16 04:41:02;;;;;;;;;;;;;;;1.03;73.88;96362.91;4995443;28;19959;-62
2023/01/16 04:43:30;;;;;;;;;;;;;;;0.99;73.98;96355.75;4995609;28;19933;-62
2023/01/16 04:45:58;;;;;;;;;;;;;;;0.89;74.83;96348.66;5012525;28;19926;-64
2023/01/16 04:48:26;;;;;;;;;;;;;;;0.85;74.36;96342.28;5012822;28;20100;-65
2023/01/16 04:50:54;;;;;;;;;;;;;;;0.91;75.16;96346.50;4994212;28;20257;-62
2023/01/16 04:56:41;;;;;;;;;;;;;;;0.82;75.13;96334.84;5012774;28;19932;-63
2023/01/16 04:59:09;;;;;;;;;;;;;;;0.88;75.32;96327.56;4994753;28;20387;-62
2023/01/16 05:01:37;;;;;;;;;;;;;;;0.95;74.47;96325.31;5013166;28;19929;-62
2023/01/16 05:04:06;;;;;;;;;;;;;;;0.90;73.98;96315.47;5012879;28;20374;-62
2023/01/16 05:06:35;;;;;;;;;;;;;;;0.86;74.59;96313.69;5012463;28;19929;-63
2023/01/16 05:09:03;;;;;;;;;;;;;;;0.95;74.62;96314.63;4991441;28;19936;-62
2023/01/16 05:11:32;;;;;;;;;;;;;;;0.82;74.86;96304.66;5008914;28;19926;-62
2023/01/16 05:14:01;;;;;;;;;;;;;;;0.83;75.00;96296.34;5012551;28;20383;-62
2023/01/16 05:16:29;;;;;;;;;;;;;;;0.89;75.31;96297.84;4995125;28;19926;-62
2023/01/16 05:18:57;;;;;;;;;;;;;;;1.02;74.88;96286.44;5001316;28;19926;-62
2023/01/16 05:21:25;;;;;;;;;;;;;;;0.95;74.18;96277.97;5012903;28;20382;-62
2023/01/16 05:23:55;;;;;;;;;;;;;;;0.90;74.61;96277.25;5013175;28;19929;-62
2023/01/16 05:26:23;;;;;;;;;;;;;;;0.79;75.05;96272.03;5014463;28;19933;-63
2023/01/16 05:28:51;;;;;;;;;;;;;;;0.78;74.20;96270.47;5014404;28;19960;-65
2023/01/16 05:31:20;;;;;;;;;;;;;;;0.78;74.53;96254.41;4996249;28;19949;-63
2023/01/16 05:33:48;;;;;;;;;;;;;;;0.80;74.51;96248.81;4993512;28;19932;-63
2023/01/16 05:36:16;;;;;;;;;;;;;;;0.79;74.50;96247.19;5012874;28;19925;-62
2023/01/16 05:38:44;;;;;;;;;;;;;;;0.84;74.92;96240.97;5012320;28;19925;-63
2023/01/16 05:41:12;;;;;;;;;;;;;;;0.75;74.86;96232.84;5011068;28;19929;-62
2023/01/16 05:43:43;;;;;;;;;;;;;;;0.80;74.78;96230.09;5009846;28;19929;-63
2023/01/16 05:46:11;;;;;;;;;;;;;;;0.83;74.57;96221.47;5005792;28;19936;-67
2023/01/16 05:48:40;;;;;;;;;;;;;;;0.79;75.03;96218.59;5010618;28;19925;-63
2023/01/16 05:51:09;;;;;;;;;;;;;;;0.80;74.76;96211.38;5012440;28;19926;-63
2023/01/16 05:56:30;;;;;;;;;;;;;;;0.94;73.56;96203.41;5010690;28;19991;-62
2023/01/16 05:58:59;;;;;;;;;;;;;;;0.96;73.92;96195.88;5012763;28;19929;-63
2023/01/16 06:01:27;;;;;;;;;;;;;;;0.94;73.98;96187.38;5012022;28;20244;-62
2023/01/16 06:03:56;;;;;;;;;;;;;;;1.04;73.32;96190.66;5003252;28;19933;-62
2023/01/16 06:06:24;;;;;;;;;;;;;;;1.04;73.74;96198.69;4991447;28;19925;-62
2023/01/16 06:08:52;;;;;;;;;;;;;;;1.10;72.28;96196.72;5010015;28;19925;-63
2023/01/16 06:11:20;;;;;;;;;;;;;;;1.10;72.46;96194.06;4993420;28;19925;-62
2023/01/16 06:13:48;;;;;;;;;;;;;;;1.04;72.79;96192.56;5010143;28;20393;-62
2023/01/16 06:16:16;;;;;;;;;;;;;;;1.15;72.27;96187.84;4999551;28;19932;-66
2023/01/16 06:18:44;;;;;;;;;;;;;;;0.77;73.62;96180.66;5014516;28;19925;-62
2023/01/16 06:21:13;;;;;;;;;;;;;;;0.93;73.11;96180.44;4998511;28;19933;-63
2023/01/16 06:23:41;;;;;;;;;;;;;;;0.95;73.32;96173.69;5011938;28;19940;-62
2023/01/16 06:26:09;;;;;;;;;;;;;;;0.82;73.49;96155.75;5011184;28;20044;-63
2023/01/16 06:28:38;;;;;;;;;;;;;;;0.87;73.54;96153.00;5012681;28;19980;-62
2023/01/16 06:31:05;;;;;;;;;;;;;;;0.86;73.60;96147.94;4992765;28;19929;-63
2023/01/16 06:33:33;;;;;;;;;;;;;;;0.90;73.49;96144.38;5012318;28;19939;-63
2023/01/16 06:36:02;;;;;;;;;;;;;;;0.90;73.43;96141.69;5011420;28;19926;-62
2023/01/16 06:38:31;;;;;;;;;;;;;;;0.88;73.32;96140.41;5011751;28;20302;-62
2023/01/16 06:41:00;;;;;;;;;;;;;;;0.92;73.30;96139.53;5011010;28;19961;-63
2023/01/16 06:43:30;;;;;;;;;;;;;;;0.91;74.20;96137.97;5001704;28;19962;-66
2023/01/16 06:45:58;;;;;;;;;;;;;;;0.95;73.02;96136.25;5007489;28;19929;-62
2023/01/16 06:48:26;;;;;;;;;;;;;;;0.89;73.02;96124.06;5000242;28;19940;-63
2023/01/16 06:50:54;;;;;;;;;;;;;;;1.00;72.59;96127.38;5010326;28;19933;-63
2023/01/16 06:56:17;;;;;;;;;;;;;;;0.79;73.34;96110.88;5010615;28;19936;-62
2023/01/16 06:58:44;;;;;;;;;;;;;;;0.89;73.21;96105.34;4994513;28;19926;-62
2023/01/16 07:01:12;;;;;;;;;;;;;;;0.83;73.57;96101.19;5004872;28;19925;-62
2023/01/16 07:03:40;;;;;;;;;;;;;;;0.82;73.71;96096.13;5008979;28;19941;-63
2023/01/16 07:06:32;;;;;;;;;;;;;;;0.85;73.81;96090.19;5004316;28;19933;-62
2023/01/16 07:09:00;;;;;;;;;;;;;;;0.74;73.82;96084.22;5009504;28;19926;-62
2023/01/16 07:11:30;;;;;;;;;;;;;;;0.87;73.55;96080.81;5011826;28;19937;-62
2023/01/16 07:25:04;;;;;;;;;;;;;;;1.32;71.60;96059.66;4996213;28;19946;-62
2023/01/16 07:30:26;;;;;;;;;;;;;;;1.43;71.10;96034.28;4994388;28;20291;-62
2023/01/16 07:32:54;;;;;;;;;;;;;;;1.20;70.66;96030.72;4994960;28;20387;-63
2023/01/16 07:35:22;;;;;;;;;;;;;;;1.24;70.68;96021.03;5014071;28;20353;-62
2023/01/16 07:37:52;;;;;;;;;;;;;;;1.34;70.96;96019.25;5013437;28;19971;-62
2023/01/16 07:40:20;;;;;;;;;;;;;;;1.21;70.66;96004.78;4998396;28;19925;-63
2023/01/16 07:42:51;;;;;;;;;;;;;;;1.44;70.16;96009.13;5013836;28;20306;-64
2023/01/16 07:45:21;;;;;;;;;;;;;;;1.41;69.45;95992.88;5009231;28;19926;-63
2023/01/16 07:47:49;;;;;;;;;;;;;;;1.41;70.47;95988.31;4996325;28;19930;-63
2023/01/16 07:50:17;;;;;;;;;;;;;;;1.60;70.40;95990.06;4997765;28;19933;-62
2023/01/16 07:52:45;;;;;;;;;;;;;;;1.48;70.26;95972.63;5010467;28;19925;-62
2023/01/16 07:55:15;;;;;;;;;;;;;;;1.49;69.90;95968.06;5011953;28;19936;-62
2023/01/16 07:57:43;;;;;;;;;;;;;;;1.58;70.07;95967.06;5010679;28;19929;-62
2023/01/16 08:00:13;;;;;;;;;;;;;;;1.60;70.01;95965.97;5013480;28;19936;-62
2023/01/16 08:02:42;;;;;;;;;;;;;;;1.66;69.59;95948.72;5011494;28;19926;-62
2023/01/16 08:05:11;;;;;;;;;;;;;;;1.79;69.08;95945.19;5011991;28;19930;-63
2023/01/16 08:08:02;;;;;;;;;;;;;;;1.81;68.97;95951.03;4993492;28;19933;-62
2023/01/16 08:10:31;;;;;;;;;;;;;;;1.69;69.03;95945.44;5012699;28;19925;-63
2023/01/16 08:12:59;;;;;;;;;;;;;;;1.94;68.45;95938.72;5011690;28;19937;-62
2023/01/16 08:15:29;;;;;;;;;;;;;;;2.07;67.67;95935.97;5013255;28;19933;-62
2023/01/16 08:17:57;;;;;;;;;;;;;;;1.98;67.70;95924.41;4992049;28;19972;-66
2023/01/16 08:20:25;;;;;;;;;;;;;;;1.98;68.24;95924.41;5013759;28;19932;-63
2023/01/16 08:22:57;;;;;;;;;;;;;;;2.00;68.29;95916.06;5010420;28;19987;-63
2023/01/16 08:25:26;;;;;;;;;;;;;;;2.02;68.35;95911.97;4997154;28;19925;-63
2023/01/16 08:27:54;;;;;;;;;;;;;;;2.12;68.01;95905.59;5011335;28;19963;-62
2023/01/16 08:30:22;;;;;;;;;;;;;;;2.04;68.23;95893.72;5007866;28;19930;-63
2023/01/16 08:32:55;;;;;;;;;;;;;;;2.14;68.25;95891.91;5007247;28;19929;-63
2023/01/16 08:35:23;;;;;;;;;;;;;;;2.25;66.97;95877.94;5010698;28;20363;-63
2023/01/16 08:37:51;;;;;;;;;;;;;;;2.34;67.18;95870.75;4994394;28;20036;-63
2023/01/16 08:40:24;;;;;;;;;;;;;;;2.41;66.19;95864.94;5015395;28;19932;-62
2023/01/16 08:51:25;;;;;;;;;;;;;;;2.76;64.65;95838.22;5017699;28;20401;-63
2023/01/16 08:54:19;;;;;;;;;;;;;;;2.86;64.38;95844.09;5011195;28;19926;-62
2023/01/16 08:56:47;;;;;;;;;;;;;;;2.86;65.23;95832.59;5001180;28;19934;-62
2023/01/16 08:59:15;;;;;;;;;;;;;;;2.91;64.87;95823.59;4989332;28;19933;-62
2023/01/16 09:01:46;;;;;;;;;;;;;;;2.95;64.63;95814.63;4991479;28;19972;-63
2023/01/16 09:04:15;;;;;;;;;;;;;;;3.08;64.83;95813.69;4988756;28;20310;-62
2023/01/16 09:06:44;;;;;;;;;;;;;;;3.15;64.32;95803.28;4989872;28;19926;-63
2023/01/16 09:09:12;;;;;;;;;;;;;;;3.22;63.55;95812.75;4990344;28;20012;-63
2023/01/16 09:14:51;;;;;;;;;;;;;;;3.33;62.97;95800.59;4991883;28;19926;-63
2023/01/16 09:17:24;;;;;;;;;;;;;;;3.49;62.67;95798.22;4988562;28;19937;-64
2023/01/16 09:19:53;;;;;;;;;;;;;;;3.61;63.41;95795.69;4989901;28;19926;-63
2023/01/16 09:22:22;;;;;;;;;;;;;;;3.71;61.76;95794.56;4987347;28;20009;-63
2023/01/16 09:27:47;;;;;;;;;;;;;;;4.00;60.90;95770.50;4988800;28;20389;-64
2023/01/16 09:30:16;;;;;;;;;;;;;;;3.92;60.57;95773.97;4991084;28;19941;-63
2023/01/16 09:32:44;;;;;;;;;;;;;;;3.98;60.36;95778.06;4989856;28;19926;-64
2023/01/16 09:35:16;;;;;;;;;;;;;;;3.84;60.24;95772.91;4988741;28;19985;-61
2023/01/16 09:37:45;;;;;;;;;;;;;;;3.95;60.90;95762.59;4989855;28;19933;-62
2023/01/16 09:40:15;;;;;;;;;;;;;;;4.14;60.32;95762.22;4990500;28;19941;-63
2023/01/16 09:45:39;;;;;;;;;;;;;;;4.15;58.59;95739.59;4988406;28;19929;-63
2023/01/16 09:48:10;;;;;;;;;;;;;;;4.30;58.28;95746.34;5001770;28;19930;-63
2023/01/16 09:50:42;;;;;;;;;;;;;;;4.43;58.33;95737.28;4994793;28;20017;-63
2023/01/16 09:58:47;;;;;;;;;;;;;;;4.64;58.25;95731.94;5010872;28;19933;-63
2023/01/16 10:01:23;;;;;;;;;;;;;;;4.69;56.80;95721.78;5011505;28;19948;-62
2023/01/16 10:03:52;;;;;;;;;;;;;;;4.85;55.86;95699.69;5010537;28;19929;-64
2023/01/16 10:06:27;;;;;;;;;;;;;;;4.82;55.60;95689.56;5011567;28;19929;-62
2023/01/16 10:08:59;;;;;;;;;;;;;;;4.85;55.63;95678.94;5008225;28;20527;-63
2023/01/16 10:11:29;;;;;;;;;;;;;;;4.73;57.32;95676.16;5008222;28;20298;-63
2023/01/16 10:14:04;;;;;;;;;;;;;;;4.81;56.51;95671.84;5008246;28;19925;-63
2023/01/16 10:16:35;;;;;;;;;;;;;;;4.96;55.49;95673.94;5006305;28;19925;-63
2023/01/16 10:19:03;;;;;;;;;;;;;;;4.95;55.87;95672.34;5009232;28;19971;-63
2023/01/16 10:21:46;;;;;;;;;;;;;;;5.00;56.74;95666.75;5009611;28;19929;-62
2023/01/16 10:24:17;;;;;;;;;;;;;;;5.04;54.97;95661.53;5004237;28;19952;-63
2023/01/16 10:26:48;;;;;;;;;;;;;;;4.80;54.75;95646.06;4990694;28;19996;-63
2023/01/16 10:30:06;;;;;;;;;;;;;;;4.99;55.60;95646.34;5006351;28;19976;-63
2023/01/16 10:32:35;;;;;;;;;;;;;;;4.91;53.65;95637.25;5008724;28;19932;-62
2023/01/16 10:35:04;;;;;;;;;;;;;;;5.05;54.30;95633.47;4992210;28;20276;-62
2023/01/16 10:37:32;;;;;;;;;;;;;;;5.16;54.31;95630.03;5009479;28;20398;-63
2023/01/16 10:40:11;;;;;;;;;;;;;;;5.22;54.16;95626.06;5010878;28;19925;-63
2023/01/16 10:50:59;;;;;;;;;;;;;;;5.35;53.14;95596.47;5014017;28;19926;-65
2023/01/16 10:56:47;;;;;;;;;;;;;;;5.49;52.05;95586.94;5012208;28;20020;-63
2023/01/16 10:59:16;;;;;;;;;;;;;;;5.57;52.03;95590.66;4997471;28;19926;-63
2023/01/16 11:01:44;;;;;;;;;;;;;;;5.60;51.50;95584.59;4995755;28;19925;-63
2023/01/16 11:04:12;;;;;;;;;;;;;;;5.57;52.94;95576.41;5009337;28;19925;-62
2023/01/16 11:06:41;;;;;;;;;;;;;;;5.59;52.80;95560.69;5011336;28;19929;-62
2023/01/16 11:09:17;;;;;;;;;;;;;;;5.67;52.09;95563.28;5009459;28;19933;-66
2023/01/16 11:20:21;;;;;;;;;;;;;;;5.31;53.71;95520.16;4995742;28;19933;-63
2023/01/16 11:22:51;;;;;;;;;;;;;;;5.29;53.87;95504.34;5009140;28;19929;-63
2023/01/16 11:25:20;;;;;;;;;;;;;;;5.45;53.39;95497.19;5010256;28;19929;-63
2023/01/16 11:27:50;;;;;;;;;;;;;;;5.62;52.38;95485.38;4994593;28;19929;-63
2023/01/16 11:30:21;;;;;;;;;;;;;;;5.68;51.73;95478.63;5002536;28;19965;-63
2023/01/16 11:32:49;;;;;;;;;;;;;;;5.64;51.17;95472.34;5006847;28;19926;-63
2023/01/16 11:35:18;;;;;;;;;;;;;;;5.84;52.05;95472.56;5013980;28;19925;-65
2023/01/16 11:37:46;;;;;;;;;;;;;;;5.76;50.50;95469.66;5011380;28;19941;-63
2023/01/16 11:40:16;;;;;;;;;;;;;;;5.86;51.88;95464.91;5013027;28;19932;-63
2023/01/16 11:48:26;;;;;;;;;;;;;;;6.09;50.31;95433.66;5012440;28;19940;-62
2023/01/16 11:50:55;;;;;;;;;;;;;;;6.01;50.90;95423.78;5013218;28;20390;-63
2023/01/16 11:53:23;;;;;;;;;;;;;;;5.97;52.05;95418.31;5004312;28;19987;-63
2023/01/16 11:56:42;;;;;;;;;;;;;;;5.91;51.13;95408.06;5010793;28;19932;-62
2023/01/16 11:59:18;;;;;;;;;;;;;;;5.70;51.42;95384.81;5009883;28;19929;-62
2023/01/16 12:08:21;;;;;;;;;;;;;;;5.76;51.93;95351.13;5008520;28;19933;-63
2023/01/16 12:11:14;;;;;;;;;;;;;;;5.84;52.59;95346.69;5008363;28;19926;-62
2023/01/16 12:16:34;;;;;;;;;;;;;;;5.87;52.79;95343.31;5011961;28;19925;-62
2023/01/16 12:19:19;;;;;;;;;;;;;;;5.83;53.29;95344.34;5012547;28;19925;-62
2023/01/16 12:21:50;;;;;;;;;;;;;;;5.98;51.84;95332.88;5008026;28;19933;-63
2023/01/16 12:24:21;;;;;;;;;;;;;;;5.99;53.44;95337.13;5011250;28;19929;-62
2023/01/16 12:30:20;;;;;;;;;;;;;;;6.02;51.06;95331.06;5008864;28;19929;-63
2023/01/16 12:32:59;;;;;;;;;;;;;;;6.17;52.23;95334.88;5011179;28;19937;-62
2023/01/16 12:35:29;;;;;;;;;;;;;;;6.15;52.87;95334.47;5011039;28;20000;-63
2023/01/16 12:38:04;;;;;;;;;;;;;;;6.20;50.45;95332.28;5011551;28;20374;-63
2023/01/16 12:40:35;;;;;;;;;;;;;;;6.23;51.43;95333.50;5001302;28;19926;-63
2023/01/16 12:43:19;;;;;;;;;;;;;;;6.28;51.49;95325.97;5009113;28;19937;-63
2023/01/16 12:45:52;;;;;;;;;;;;;;;6.34;49.89;95339.16;5008726;28;19925;-63
2023/01/16 12:48:36;;;;;;;;;;;;;;;6.34;48.42;95337.28;5010831;28;19934;-64
2023/01/16 12:51:11;;;;;;;;;;;;;;;6.09;49.44;95333.94;4995890;28;19961;-62
2023/01/16 12:53:44;;;;;;;;;;;;;;;6.10;49.64;95340.88;5008879;28;19934;-63
2023/01/16 12:56:24;;;;;;;;;;;;;;;6.14;50.26;95346.38;5011006;28;19979;-63
2023/01/16 12:58:54;;;;;;;;;;;;;;;6.10;51.63;95354.38;5006997;28;19976;-63
2023/01/16 13:01:23;;;;;;;;;;;;;;;6.11;51.50;95339.75;5009098;28;19930;-62
2023/01/16 13:03:54;;;;;;;;;;;;;;;6.03;50.19;95327.22;4991563;28;19932;-64
2023/01/16 13:06:23;;;;;;;;;;;;;;;6.08;50.92;95332.38;5008875;28;19934;-62
2023/01/16 13:08:59;;;;;;;;;;;;;;;6.08;50.51;95323.50;5010234;28;19980;-64
2023/01/16 13:14:28;;;;;;;;;;;;;;;5.97;50.50;95334.00;5003946;28;19933;-63
2023/01/16 13:16:59;;;;;;;;;;;;;;;6.05;50.30;95351.91;5006639;28;19925;-63
2023/01/16 13:19:28;;;;;;;;;;;;;;;6.01;51.39;95332.16;5008269;28;19925;-63
2023/01/16 13:21:58;;;;;;;;;;;;;;;6.03;50.53;95328.00;5008664;28;19944;-62
2023/01/16 13:24:28;;;;;;;;;;;;;;;5.95;51.23;95318.16;5009336;28;19930;-62
2023/01/16 13:27:21;;;;;;;;;;;;;;;6.04;49.28;95315.31;5008339;28;20007;-65
2023/01/16 13:29:54;;;;;;;;;;;;;;;5.92;50.45;95315.38;5008889;28;19977;-62
2023/01/16 13:32:23;;;;;;;;;;;;;;;5.88;51.43;95301.00;5008666;28;20366;-62
2023/01/16 13:34:57;;;;;;;;;;;;;;;5.89;50.97;95297.94;5010252;28;19936;-62
2023/01/16 13:37:51;;;;;;;;;;;;;;;5.84;51.32;95305.50;5010810;28;20398;-62
2023/01/16 13:40:34;;;;;;;;;;;;;;;5.85;52.41;95315.16;5008928;28;19926;-62
2023/01/16 13:45:48;;;;;;;;;;;;;;;5.89;50.17;95318.72;4997387;28;19925;-62
2023/01/16 13:48:18;;;;;;;;;;;;;;;5.96;49.66;95310.84;5011632;28;19925;-62
2023/01/16 13:50:49;;;;;;;;;;;;;;;5.90;49.91;95317.59;5009455;28;20013;-62
2023/01/16 13:53:22;;;;;;;;;;;;;;;5.89;50.45;95313.34;5012967;28;19925;-67
2023/01/16 13:56:40;;;;;;;;;;;;;;;5.86;49.61;95316.72;5013695;28;19952;-62
2023/01/16 13:59:26;;;;;;;;;;;;;;;5.80;52.27;95313.47;5012333;28;19926;-64
2023/01/16 14:01:56;;;;;;;;;;;;;;;5.82;50.11;95311.25;5012075;28;19980;-64
2023/01/16 14:04:27;;;;;;;;;;;;;;;5.84;50.43;95308.19;5014888;28;19930;-62
2023/01/16 14:10:16;;;;;;;;;;;;;;;5.73;50.41;95313.28;4991459;28;20046;-63
2023/01/16 14:12:47;;;;;;;;;;;;;;;5.77;51.50;95309.56;4952004;28;20422;-65
2023/01/16 14:18:04;;;;;;;;;;;;;;;5.85;50.13;95274.72;4988042;28;19925;-62
2023/01/16 14:20:37;;;;;;;;;;;;;;;5.72;51.34;95265.94;5013611;28;19957;-62
2023/01/16 14:25:59;;;;;;;;;;;;;;;5.85;50.33;95239.72;5018820;28;19929;-63
2023/01/16 14:28:28;;;;;;;;;;;;;;;5.70;51.42;95244.75;5006982;28;20005;-62
2023/01/16 14:30:55;;;;;;;;;;;;;;;5.73;51.83;95246.72;5011067;28;19964;-63
2023/01/16 14:33:25;;;;;;;;;;;;;;;5.63;51.18;95232.97;4986821;28;19930;-62
2023/01/16 14:35:55;;;;;;;;;;;;;;;5.63;52.72;95243.75;5011048;28;19929;-62
2023/01/16 14:38:28;;;;;;;;;;;;;;;5.56;51.83;95244.34;5006861;28;19925;-62
2023/01/16 14:55:48;;;;;;;;;;;;;;;5.46;51.31;95185.59;4983877;28;19925;-62
2023/01/16 14:58:19;;;;;;;;;;;;;;;5.48;51.79;95199.50;4989279;28;20302;-62
2023/01/16 15:00:51;;;;;;;;;;;;;;;5.49;53.67;95203.78;4989701;28;19976;-62
2023/01/16 15:03:22;;;;;;;;;;;;;;;5.42;52.54;95187.41;5006233;28;19996;-62
2023/01/16 15:05:51;;;;;;;;;;;;;;;5.41;53.27;95200.09;4991776;28;19926;-62
2023/01/16 15:08:20;;;;;;;;;;;;;;;5.41;54.19;95183.16;4989877;28;19952;-62
2023/01/16 15:23:02;;;;;;;;;;;;;;;5.57;51.80;95140.88;4990007;28;19957;-65
2023/01/16 15:25:34;;;;;;;;;;;;;;;5.55;53.54;95151.22;4992871;28;19926;-63
2023/01/16 15:28:03;;;;;;;;;;;;;;;5.40;53.74;95150.06;5004229;28;19980;-63
2023/01/16 15:30:33;;;;;;;;;;;;;;;5.45;52.71;95135.56;4992034;28;20583;-64
2023/01/16 15:35:43;;;;;;;;;;;;;;;5.48;51.32;95095.25;4992394;28;19961;-63
2023/01/16 15:38:12;;;;;;;;;;;;;;;5.34;52.95;95099.53;4993433;28;19925;-63
2023/01/16 15:40:40;;;;;;;;;;;;;;;5.20;53.42;95095.34;4991474;28;20360;-63